createdAt,value
2018-06-05T00:01:03.758Z,18.07
2018-06-05T00:01:49.122Z,18.11
2018-06-05T00:02:49.133Z,18.11
2018-06-05T00:03:49.193Z,18.21
2018-06-05T00:04:49.187Z,18.14
2018-06-05T00:05:49.238Z,18.12
2018-06-05T00:06:48.977Z,18.1
2018-06-05T00:08:03.671Z,18.1
2018-06-05T00:08:49.298Z,18.07
2018-06-05T00:09:49.344Z,18.05
2018-06-05T00:10:49.076Z,18.05
2018-06-05T00:11:49.384Z,18.05
2018-06-05T00:12:49.124Z,18.07
2018-06-05T00:13:49.407Z,18.02
2018-06-05T00:15:49.480Z,18.02
2018-06-05T00:18:03.907Z,17.97
2018-06-05T00:18:49.553Z,17.89
2018-06-05T00:19:49.549Z,17.95
2018-06-05T00:21:04.249Z,17.92
2018-06-05T00:21:49.338Z,17.82
2018-06-05T00:22:49.651Z,17.81
2018-06-05T00:23:49.643Z,17.81
2018-06-05T00:24:49.685Z,17.78
2018-06-05T00:25:49.441Z,17.79
2018-06-05T00:26:49.767Z,17.72
2018-06-05T00:27:49.777Z,17.81
2018-06-05T00:28:49.768Z,17.78
2018-06-05T00:30:49.816Z,17.74
2018-06-05T00:32:04.501Z,17.79
2018-06-05T00:32:49.893Z,17.75
2018-06-05T00:33:49.901Z,17.77
2018-06-05T00:35:04.570Z,17.72
2018-06-05T00:36:04.613Z,17.78
2018-06-05T00:36:49.957Z,17.75
2018-06-05T00:37:50.012Z,17.72
2018-06-05T00:38:50.030Z,17.68
2018-06-05T00:40:04.438Z,17.72
2018-06-05T00:40:50.079Z,17.71
2018-06-05T00:41:50.078Z,17.75
2018-06-05T00:42:50.132Z,17.75
2018-06-05T00:43:50.127Z,17.64
2018-06-05T00:44:50.180Z,17.64
2018-06-05T00:45:49.935Z,17.64
2018-06-05T00:46:49.967Z,17.66
2018-06-05T00:47:50.221Z,17.71
2018-06-05T00:48:50.244Z,17.66
2018-06-05T00:49:50.307Z,17.62
2018-06-05T00:51:04.955Z,17.68
2018-06-05T00:51:50.353Z,17.72
2018-06-05T00:52:50.373Z,17.64
2018-06-05T00:53:50.387Z,17.64
2018-06-05T00:54:50.403Z,17.7
2018-06-05T00:56:04.819Z,17.58
2018-06-05T00:56:50.473Z,17.64
2018-06-05T00:57:50.465Z,17.7
2018-06-05T00:58:50.571Z,17.62
2018-06-05T00:59:50.539Z,17.63
2018-06-05T01:00:50.557Z,17.58
2018-06-05T01:01:50.563Z,17.63
2018-06-05T01:02:50.357Z,17.71
2018-06-05T01:03:50.091Z,17.66
2018-06-05T01:04:50.660Z,17.64
2018-06-05T01:05:50.657Z,17.71
2018-06-05T01:06:50.697Z,17.71
2018-06-05T01:07:50.701Z,17.66
2018-06-05T01:08:50.764Z,17.64
2018-06-05T01:09:50.787Z,17.63
2018-06-05T01:12:50.825Z,17.58
2018-06-05T01:13:50.875Z,17.68
2018-06-05T01:14:50.880Z,17.54
2018-06-05T01:16:50.954Z,17.59
2018-06-05T01:17:50.952Z,17.56
2018-06-05T01:19:50.992Z,17.48
2018-06-05T01:20:51.154Z,17.52
2018-06-05T01:21:51.042Z,17.52
2018-06-05T01:22:51.091Z,17.52
2018-06-05T01:23:51.105Z,17.56
2018-06-05T01:24:51.148Z,17.54
2018-06-05T01:25:51.131Z,17.56
2018-06-05T01:26:51.163Z,17.59
2018-06-05T01:28:05.594Z,17.74
2018-06-05T01:29:51.259Z,17.7
2018-06-05T01:30:51.269Z,17.68
2018-06-05T01:31:51.274Z,17.71
2018-06-05T01:32:51.330Z,17.71
2018-06-05T01:33:51.093Z,17.72
2018-06-05T01:34:51.349Z,17.84
2018-06-05T01:35:51.398Z,17.78
2018-06-05T01:36:51.397Z,17.74
2018-06-05T01:38:06.103Z,17.74
2018-06-05T01:38:51.446Z,17.77
2018-06-05T01:40:06.148Z,17.79
2018-06-05T01:40:51.522Z,17.79
2018-06-05T01:41:51.533Z,17.81
2018-06-05T01:43:06.220Z,17.74
2018-06-05T01:44:51.595Z,17.77
2018-06-05T01:45:51.637Z,17.75
2018-06-05T01:46:51.652Z,17.74
2018-06-05T01:47:51.690Z,17.74
2018-06-05T01:48:51.685Z,17.71
2018-06-05T01:49:51.740Z,17.78
2018-06-05T01:50:51.473Z,17.81
2018-06-05T01:51:56.471Z,17.78
2018-06-05T01:52:51.530Z,17.75
2018-06-05T01:53:51.835Z,17.72
2018-06-05T01:55:06.508Z,17.74
2018-06-05T01:55:51.593Z,17.7
2018-06-05T01:56:51.901Z,17.64
2018-06-05T01:57:51.390Z,17.75
2018-06-05T01:58:51.942Z,17.71
2018-06-05T01:59:51.981Z,17.56
2018-06-05T02:00:51.715Z,17.54
2018-06-05T02:01:52.000Z,17.48
2018-06-05T02:02:52.036Z,17.54
2018-06-05T02:03:51.812Z,17.44
2018-06-05T02:04:52.109Z,17.4
2018-06-05T02:05:52.101Z,17.46
2018-06-05T02:06:52.125Z,17.34
2018-06-05T02:07:52.138Z,17.3
2018-06-05T02:09:52.189Z,17.23
2018-06-05T02:10:52.241Z,17.33
2018-06-05T02:11:52.252Z,17.23
2018-06-05T02:12:52.003Z,17.31
2018-06-05T02:13:52.051Z,17.28
2018-06-05T02:15:06.986Z,17.34
2018-06-05T02:15:52.346Z,17.3
2018-06-05T02:16:52.378Z,17.3
2018-06-05T02:17:52.374Z,17.33
2018-06-05T02:18:52.434Z,17.28
2018-06-05T02:19:52.173Z,17.34
2018-06-05T02:20:52.479Z,17.28
2018-06-05T02:21:52.482Z,17.26
2018-06-05T02:23:52.313Z,17.26
2018-06-05T02:24:52.412Z,17.41
2018-06-05T02:26:52.614Z,17.31
2018-06-05T02:27:52.365Z,17.37
2018-06-05T02:28:52.678Z,17.52
2018-06-05T02:29:52.409Z,17.56
2018-06-05T02:31:07.369Z,17.49
2018-06-05T02:31:52.475Z,17.55
2018-06-05T02:32:52.505Z,17.54
2018-06-05T02:33:52.501Z,17.52
2018-06-05T02:34:52.794Z,17.55
2018-06-05T02:36:52.854Z,17.52
2018-06-05T02:38:07.540Z,17.51
2018-06-05T02:38:52.625Z,17.52
2018-06-05T02:39:52.934Z,17.54
2018-06-05T02:40:52.926Z,17.58
2018-06-05T02:41:52.968Z,17.52
2018-06-05T02:42:52.973Z,17.51
2018-06-05T02:44:53.052Z,17.59
2018-06-05T02:45:53.047Z,17.52
2018-06-05T02:47:07.747Z,17.64
2018-06-05T02:47:53.097Z,17.55
2018-06-05T02:49:53.171Z,17.56
2018-06-05T02:50:53.177Z,17.55
2018-06-05T02:51:53.200Z,17.46
2018-06-05T02:52:53.244Z,17.54
2018-06-05T02:53:52.982Z,17.46
2018-06-05T02:54:53.030Z,17.51
2018-06-05T02:55:53.304Z,17.51
2018-06-05T02:56:53.338Z,17.55
2018-06-05T02:57:53.329Z,17.55
2018-06-05T02:58:53.364Z,17.56
2018-06-05T02:59:53.395Z,17.64
2018-06-05T03:00:53.434Z,17.55
2018-06-05T03:01:53.459Z,17.54
2018-06-05T03:03:08.111Z,17.62
2018-06-05T03:03:53.243Z,17.59
2018-06-05T03:04:53.495Z,17.63
2018-06-05T03:05:53.559Z,17.54
2018-06-05T03:06:53.578Z,17.66
2018-06-05T03:07:53.606Z,17.59
2018-06-05T03:08:53.346Z,17.66
2018-06-05T03:09:53.648Z,17.62
2018-06-05T03:10:53.637Z,17.72
2018-06-05T03:11:53.670Z,17.64
2018-06-05T03:12:53.703Z,17.62
2018-06-05T03:14:08.391Z,17.71
2018-06-05T03:14:53.776Z,17.54
2018-06-05T03:15:53.504Z,17.59
2018-06-05T03:16:53.838Z,17.63
2018-06-05T03:18:53.879Z,17.63
2018-06-05T03:19:53.601Z,17.62
2018-06-05T03:20:53.895Z,17.71
2018-06-05T03:22:53.964Z,17.75
2018-06-05T03:23:53.753Z,17.7
2018-06-05T03:24:53.742Z,17.68
2018-06-05T03:25:53.762Z,17.7
2018-06-05T03:26:54.037Z,17.72
2018-06-05T03:28:08.705Z,17.72
2018-06-05T03:28:54.068Z,17.72
2018-06-05T03:29:54.131Z,17.62
2018-06-05T03:30:54.129Z,17.75
2018-06-05T03:31:54.171Z,17.66
2018-06-05T03:32:54.179Z,17.72
2018-06-05T03:33:54.218Z,17.74
2018-06-05T03:34:54.212Z,17.68
2018-06-05T03:36:54.022Z,17.74
2018-06-05T03:37:54.287Z,17.79
2018-06-05T03:38:54.076Z,17.78
2018-06-05T03:40:54.227Z,17.78
2018-06-05T03:41:53.863Z,17.84
2018-06-05T03:42:54.406Z,17.86
2018-06-05T03:43:54.440Z,17.92
2018-06-05T03:44:54.483Z,17.9
2018-06-05T03:46:09.132Z,17.89
2018-06-05T03:46:54.528Z,17.9
2018-06-05T03:47:54.518Z,17.87
2018-06-05T03:48:54.573Z,17.99
2018-06-05T03:50:09.243Z,17.97
2018-06-05T03:50:54.351Z,17.96
2018-06-05T03:51:54.358Z,18.07
2018-06-05T03:52:54.652Z,18.08
2018-06-05T03:53:54.693Z,18.11
2018-06-05T03:55:54.483Z,17.97
2018-06-05T03:56:54.499Z,18
2018-06-05T03:57:54.793Z,18
2018-06-05T03:58:54.790Z,17.95
2018-06-05T03:59:54.843Z,17.97
2018-06-05T04:00:54.852Z,18.07
2018-06-05T04:01:54.852Z,17.96
2018-06-05T04:02:54.878Z,18.05
2018-06-05T04:03:54.666Z,18.25
2018-06-05T04:04:54.940Z,18.12
2018-06-05T04:06:09.629Z,18.11
2018-06-05T04:06:54.459Z,18.17
2018-06-05T04:07:54.765Z,18.07
2018-06-05T04:08:54.763Z,18.12
2018-06-05T04:10:54.831Z,18.25
2018-06-05T04:12:55.135Z,18.1
2018-06-05T04:13:55.173Z,18.15
2018-06-05T04:14:55.162Z,17.97
2018-06-05T04:15:55.232Z,17.87
2018-06-05T04:16:55.237Z,17.84
2018-06-05T04:17:54.994Z,17.89
2018-06-05T04:18:55.268Z,17.92
2018-06-05T04:19:55.286Z,17.96
2018-06-05T04:20:55.071Z,17.9
2018-06-05T04:22:55.385Z,17.99
2018-06-05T04:24:55.164Z,18
2018-06-05T04:25:55.426Z,18.02
2018-06-05T04:26:55.451Z,17.99
2018-06-05T04:27:55.505Z,17.93
2018-06-05T04:28:55.504Z,17.95
2018-06-05T04:29:55.551Z,17.92
2018-06-05T04:31:10.207Z,17.96
2018-06-05T04:32:55.589Z,17.93
2018-06-05T04:33:55.357Z,18.08
2018-06-05T04:34:55.666Z,17.96
2018-06-05T04:35:55.684Z,18.02
2018-06-05T04:36:55.732Z,18.03
2018-06-05T04:38:55.778Z,18.12
2018-06-05T04:39:55.859Z,18.17
2018-06-05T04:40:55.808Z,18.1
2018-06-05T04:41:55.832Z,18.12
2018-06-05T04:42:55.575Z,18.15
2018-06-05T04:44:55.908Z,18.11
2018-06-05T04:45:55.643Z,18.11
2018-06-05T04:46:55.959Z,18.2
2018-06-05T04:47:56.042Z,18.26
2018-06-05T04:48:55.982Z,18.14
2018-06-05T04:50:10.672Z,18.12
2018-06-05T04:50:56.023Z,18.26
2018-06-05T04:51:55.815Z,18.25
2018-06-05T04:53:10.783Z,18.18
2018-06-05T04:53:56.127Z,18.11
2018-06-05T04:54:56.148Z,18.1
2018-06-05T04:55:55.902Z,18.1
2018-06-05T04:56:56.163Z,18.27
2018-06-05T04:57:56.186Z,18.25
2018-06-05T04:59:10.900Z,18.25
2018-06-05T04:59:56.242Z,18.08
2018-06-05T05:00:56.297Z,18.08
2018-06-05T05:01:56.300Z,18.12
2018-06-05T05:02:56.079Z,18.12
2018-06-05T05:03:56.334Z,18.11
2018-06-05T05:04:56.353Z,18.1
2018-06-05T05:05:56.153Z,18.23
2018-06-05T05:06:56.428Z,18.18
2018-06-05T05:07:56.426Z,18.3
2018-06-05T05:08:56.490Z,18.23
2018-06-05T05:09:56.225Z,18.3
2018-06-05T05:10:56.269Z,18.3
2018-06-05T05:11:56.526Z,18.45
2018-06-05T05:12:56.577Z,18.44
2018-06-05T05:13:56.569Z,18.39
2018-06-05T05:15:56.647Z,18.42
2018-06-05T05:16:56.664Z,18.51
2018-06-05T05:18:56.700Z,18.44
2018-06-05T05:19:56.747Z,18.36
2018-06-05T05:20:56.482Z,18.44
2018-06-05T05:21:56.771Z,18.47
2018-06-05T05:22:56.804Z,18.35
2018-06-05T05:23:56.842Z,18.45
2018-06-05T05:25:11.515Z,18.36
2018-06-05T05:25:56.859Z,18.42
2018-06-05T05:26:56.913Z,18.27
2018-06-05T05:27:56.904Z,18.33
2018-06-05T05:28:56.692Z,18.41
2018-06-05T05:29:56.958Z,18.27
2018-06-05T05:30:56.552Z,18.25
2018-06-05T05:31:57.037Z,18.23
2018-06-05T05:32:57.033Z,18.14
2018-06-05T05:33:57.078Z,18.29
2018-06-05T05:34:57.093Z,18.3
2018-06-05T05:35:57.146Z,18.36
2018-06-05T05:37:11.803Z,18.41
2018-06-05T05:37:56.887Z,18.39
2018-06-05T05:38:57.172Z,18.47
2018-06-05T05:39:57.220Z,18.47
2018-06-05T05:41:11.632Z,18.52
2018-06-05T05:41:57.013Z,18.47
2018-06-05T05:42:57.264Z,18.5
2018-06-05T05:43:57.322Z,18.42
2018-06-05T05:44:57.322Z,18.51
2018-06-05T05:45:57.354Z,18.42
2018-06-05T05:46:57.365Z,18.35
2018-06-05T05:47:57.426Z,18.51
2018-06-05T05:48:57.441Z,18.42
2018-06-05T05:50:12.099Z,18.47
2018-06-05T05:50:57.484Z,18.51
2018-06-05T05:51:57.482Z,18.63
2018-06-05T05:52:57.527Z,18.73
2018-06-05T05:53:57.539Z,18.69
2018-06-05T05:54:57.667Z,18.66
2018-06-05T05:55:57.611Z,18.55
2018-06-05T05:57:12.264Z,18.69
2018-06-05T05:57:57.392Z,18.67
2018-06-05T05:58:57.658Z,18.51
2018-06-05T05:59:57.439Z,18.47
2018-06-05T06:00:57.699Z,18.42
2018-06-05T06:01:57.756Z,18.36
2018-06-05T06:02:57.751Z,18.47
2018-06-05T06:03:57.785Z,18.57
2018-06-05T06:04:57.841Z,18.6
2018-06-05T06:05:57.857Z,18.65
2018-06-05T06:07:12.506Z,18.6
2018-06-05T06:07:57.635Z,18.52
2018-06-05T06:08:57.992Z,18.58
2018-06-05T06:09:57.674Z,18.65
2018-06-05T06:10:58.191Z,18.65
2018-06-05T06:11:57.734Z,18.58
2018-06-05T06:13:12.669Z,18.58
2018-06-05T06:13:58.022Z,18.65
2018-06-05T06:15:12.451Z,18.65
2018-06-05T06:15:58.063Z,18.7
2018-06-05T06:16:57.847Z,18.75
2018-06-05T06:17:57.859Z,18.58
2018-06-05T06:18:58.164Z,18.72
2018-06-05T06:20:12.842Z,18.69
2018-06-05T06:20:58.186Z,18.69
2018-06-05T06:22:12.888Z,18.69
2018-06-05T06:23:12.893Z,18.73
2018-06-05T06:23:58.253Z,18.78
2018-06-05T06:25:12.958Z,18.7
2018-06-05T06:26:13.009Z,18.73
2018-06-05T06:26:58.199Z,18.72
2018-06-05T06:28:13.029Z,18.72
2018-06-05T06:28:58.382Z,18.76
2018-06-05T06:29:58.417Z,18.73
2018-06-05T06:30:58.455Z,18.65
2018-06-05T06:31:58.450Z,18.82
2018-06-05T06:32:58.505Z,18.84
2018-06-05T06:33:58.236Z,18.84
2018-06-05T06:34:58.541Z,18.87
2018-06-05T06:35:58.287Z,18.85
2018-06-05T06:36:58.653Z,18.82
2018-06-05T06:37:58.622Z,18.87
2018-06-05T06:38:58.637Z,18.87
2018-06-05T06:39:58.644Z,18.91
2018-06-05T06:40:58.668Z,18.91
2018-06-05T06:41:58.727Z,18.88
2018-06-05T06:42:58.732Z,19.04
2018-06-05T06:43:58.774Z,18.98
2018-06-05T06:44:58.504Z,18.94
2018-06-05T06:45:58.816Z,18.88
2018-06-05T06:46:58.810Z,18.92
2018-06-05T06:48:58.850Z,18.98
2018-06-05T06:49:58.660Z,18.9
2018-06-05T06:50:58.679Z,19.02
2018-06-05T06:51:58.935Z,19.16
2018-06-05T06:52:58.983Z,18.81
2018-06-05T06:53:58.734Z,18.91
2018-06-05T06:54:58.775Z,19.06
2018-06-05T06:55:59.036Z,19.04
2018-06-05T06:56:58.556Z,19.13
2018-06-05T06:57:58.832Z,19.18
2018-06-05T06:59:13.861Z,19.36
2018-06-05T07:00:13.544Z,19.29
2018-06-05T07:00:59.233Z,19.32
2018-06-05T07:02:59.228Z,19.33
2018-06-05T07:03:59.234Z,19.36
2018-06-05T07:04:59.315Z,19.4
2018-06-05T07:05:59.281Z,19.33
2018-06-05T07:06:59.325Z,19.1
2018-06-05T07:07:59.085Z,19.26
2018-06-05T07:08:59.110Z,19.28
2018-06-05T07:09:59.370Z,19.19
2018-06-05T07:10:59.137Z,19.16
2018-06-05T07:11:59.445Z,19.29
2018-06-05T07:12:59.459Z,19.1
2018-06-05T07:13:59.495Z,19.18
2018-06-05T07:14:59.498Z,19.07
2018-06-05T07:16:14.193Z,19.21
2018-06-05T07:16:59.534Z,19.14
2018-06-05T07:17:59.565Z,19.28
2018-06-05T07:18:59.599Z,19.26
2018-06-05T07:19:59.645Z,19.37
2018-06-05T07:20:59.667Z,19.66
2018-06-05T07:21:59.665Z,19.74
2018-06-05T07:22:59.704Z,19.77
2018-06-05T07:23:59.879Z,19.73
2018-06-05T07:24:59.473Z,19.74
2018-06-05T07:25:59.789Z,19.73
2018-06-05T07:26:59.780Z,19.62
2018-06-05T07:27:59.845Z,19.71
2018-06-05T07:28:59.827Z,19.71
2018-06-05T07:29:59.626Z,19.61
2018-06-05T07:30:59.891Z,19.81
2018-06-05T07:32:59.940Z,19.94
2018-06-05T07:33:59.953Z,19.95
2018-06-05T07:34:59.748Z,19.76
2018-06-05T07:36:00.008Z,19.77
2018-06-05T07:37:00.039Z,19.76
2018-06-05T07:38:00.084Z,19.78
2018-06-05T07:38:59.817Z,19.74
2018-06-05T07:40:00.129Z,19.62
2018-06-05T07:40:59.874Z,19.61
2018-06-05T07:41:59.918Z,19.73
2018-06-05T07:43:14.834Z,19.69
2018-06-05T07:44:00.206Z,19.69
2018-06-05T07:45:14.903Z,19.78
2018-06-05T07:46:00.254Z,19.92
2018-06-05T07:47:00.044Z,20.01
2018-06-05T07:48:14.960Z,19.81
2018-06-05T07:49:00.355Z,19.73
2018-06-05T07:50:00.476Z,19.71
2018-06-05T07:51:00.402Z,19.96
2018-06-05T07:52:00.415Z,19.92
2018-06-05T07:53:00.419Z,19.95
2018-06-05T07:54:00.447Z,20.14
2018-06-05T07:55:00.501Z,20.24
2018-06-05T07:56:00.495Z,20.31
2018-06-05T07:57:00.295Z,20.28
2018-06-05T07:58:00.284Z,20.51
2018-06-05T07:59:00.599Z,20.55
2018-06-05T08:00:00.608Z,20.64
2018-06-05T08:01:00.367Z,20.85
2018-06-05T08:02:00.398Z,20.91
2018-06-05T08:03:15.083Z,20.67
2018-06-05T08:04:00.723Z,20.67
2018-06-05T08:05:00.716Z,20.55
2018-06-05T08:06:00.772Z,20.72
2018-06-05T08:07:00.762Z,20.8
2018-06-05T08:08:15.463Z,20.82
2018-06-05T08:10:00.858Z,21.29
2018-06-05T08:11:00.634Z,21.44
2018-06-05T08:12:00.734Z,21.5
2018-06-05T08:13:00.680Z,21.42
2018-06-05T08:14:00.940Z,21.47
2018-06-05T08:16:00.754Z,21.4
2018-06-05T08:17:01.053Z,21.47
2018-06-05T08:18:01.048Z,21.37
2018-06-05T08:20:01.110Z,21.54
2018-06-05T08:21:01.151Z,21.72
2018-06-05T08:22:00.883Z,21.96
2018-06-05T08:23:01.203Z,21.84
2018-06-05T08:25:01.236Z,22.07
2018-06-05T08:26:01.241Z,22.25
2018-06-05T08:27:01.299Z,22.61
2018-06-05T08:28:15.979Z,22.7
2018-06-05T08:29:01.321Z,22.43
2018-06-05T08:30:16.024Z,21.99
2018-06-05T08:32:01.397Z,22
2018-06-05T08:33:01.455Z,21.84
2018-06-05T08:34:01.465Z,22.02
2018-06-05T08:35:16.158Z,22.58
2018-06-05T08:36:01.498Z,22.68
2018-06-05T08:37:01.553Z,22.72
2018-06-05T08:38:01.730Z,22.85
2018-06-05T08:39:01.577Z,23
2018-06-05T08:40:01.618Z,22.58
2018-06-05T08:41:01.657Z,22.22
2018-06-05T08:42:01.701Z,22.14
2018-06-05T08:43:01.692Z,22.14
2018-06-05T08:44:01.729Z,22.06
2018-06-05T08:45:01.761Z,21.9
2018-06-05T08:46:01.753Z,21.88
2018-06-05T08:47:16.460Z,22.1
2018-06-05T08:48:01.807Z,22
2018-06-05T08:49:01.577Z,21.99
2018-06-05T08:50:01.974Z,21.98
2018-06-05T08:51:16.547Z,22.39
2018-06-05T08:52:01.944Z,22.57
2018-06-05T08:53:01.939Z,22.72
2018-06-05T08:54:01.992Z,22.85
2018-06-05T08:55:01.983Z,23.01
2018-06-05T08:57:02.066Z,22.92
2018-06-05T08:58:02.065Z,22.77
2018-06-05T08:59:02.128Z,22.85
2018-06-05T09:00:02.363Z,22.72
2018-06-05T09:01:16.823Z,22.57
2018-06-05T09:02:02.172Z,22.75
2018-06-05T09:03:02.195Z,22.8
2018-06-05T09:05:02.254Z,22.94
2018-06-05T09:06:02.313Z,22.8
2018-06-05T09:08:02.338Z,23.16
2018-06-05T09:10:02.375Z,23
2018-06-05T09:11:02.559Z,23
2018-06-05T09:12:02.479Z,22.95
2018-06-05T09:13:02.204Z,22.88
2018-06-05T09:14:02.247Z,23.12
2018-06-05T09:15:17.166Z,23.43
2018-06-05T09:16:02.568Z,23.51
2018-06-05T09:17:02.685Z,23.46
2018-06-05T09:18:16.991Z,23.33
2018-06-05T09:19:02.670Z,22.94
2018-06-05T09:20:02.636Z,22.97
2018-06-05T09:21:02.691Z,23
2018-06-05T09:22:02.748Z,22.51
2018-06-05T09:23:17.442Z,22.47
2018-06-05T09:24:02.760Z,22.7
2018-06-05T09:25:02.796Z,22.77
2018-06-05T09:26:02.275Z,22.95
2018-06-05T09:27:02.844Z,23.23
2018-06-05T09:29:03.064Z,23.76
2018-06-05T09:30:02.897Z,23.84
2018-06-05T09:31:02.956Z,23.91
2018-06-05T09:33:03.004Z,23.75
2018-06-05T09:34:17.732Z,23.76
2018-06-05T09:35:03.045Z,23.57
2018-06-05T09:36:03.054Z,22.91
2018-06-05T09:37:03.131Z,23.22
2018-06-05T09:38:17.785Z,23.17
2018-06-05T09:39:03.182Z,22.94
2018-06-05T09:40:03.184Z,22.97
2018-06-05T09:41:02.947Z,22.95
2018-06-05T09:42:03.314Z,23.04
2018-06-05T09:43:03.269Z,22.91
2018-06-05T09:44:03.029Z,22.97
2018-06-05T09:45:03.059Z,22.79
2018-06-05T09:46:17.978Z,22.8
2018-06-05T09:47:03.475Z,22.95
2018-06-05T09:48:03.400Z,23.23
2018-06-05T09:49:03.452Z,23.15
2018-06-05T09:50:03.196Z,22.97
2018-06-05T09:51:03.452Z,23
2018-06-05T09:52:03.609Z,22.8
2018-06-05T09:53:03.500Z,22.9
2018-06-05T09:54:03.292Z,23.02
2018-06-05T09:55:03.298Z,22.97
2018-06-05T09:57:03.378Z,22.91
2018-06-05T09:58:04.002Z,22.58
2018-06-05T09:59:03.428Z,22.43
2018-06-05T10:00:03.433Z,22.72
2018-06-05T10:01:03.469Z,22.94
2018-06-05T10:02:03.480Z,23.15
2018-06-05T10:03:03.535Z,23.07
2018-06-05T10:04:03.955Z,22.77
2018-06-05T10:05:03.836Z,22.79
2018-06-05T10:06:18.518Z,22.95
2018-06-05T10:07:03.628Z,23.09
2018-06-05T10:08:03.642Z,22.94
2018-06-05T10:09:04.002Z,22.76
2018-06-05T10:10:18.713Z,22.27
2018-06-05T10:12:03.768Z,22.46
2018-06-05T10:14:04.098Z,22.77
2018-06-05T10:15:04.088Z,22.95
2018-06-05T10:16:18.792Z,23.02
2018-06-05T10:17:04.193Z,22.95
2018-06-05T10:18:03.908Z,23
2018-06-05T10:19:04.221Z,23.09
2018-06-05T10:20:04.244Z,22.88
2018-06-05T10:21:04.006Z,22.8
2018-06-05T10:22:04.271Z,22.47
2018-06-05T10:23:04.314Z,22.1
2018-06-05T10:24:04.320Z,22.27
2018-06-05T10:25:04.111Z,22.3
2018-06-05T10:27:04.150Z,23.01
2018-06-05T10:28:04.191Z,22.91
2018-06-05T10:29:04.241Z,22.91
2018-06-05T10:30:04.240Z,23
2018-06-05T10:31:04.503Z,23.02
2018-06-05T10:32:04.282Z,23.12
2018-06-05T10:33:04.551Z,23.35
2018-06-05T10:34:04.668Z,23.12
2018-06-05T10:35:19.267Z,23.28
2018-06-05T10:36:04.400Z,23.23
2018-06-05T10:37:19.061Z,23.32
2018-06-05T10:38:04.452Z,23.46
2018-06-05T10:39:04.476Z,23.47
2018-06-05T10:40:04.506Z,23.66
2018-06-05T10:41:04.768Z,23.83
2018-06-05T10:42:19.465Z,23.79
2018-06-05T10:43:04.853Z,23.46
2018-06-05T10:44:04.851Z,23.53
2018-06-05T10:45:04.908Z,23.47
2018-06-05T10:46:04.386Z,23.36
2018-06-05T10:47:19.594Z,23.51
2018-06-05T10:48:04.700Z,23.47
2018-06-05T10:49:04.973Z,23.38
2018-06-05T10:50:05.031Z,23.5
2018-06-05T10:51:05.030Z,23.58
2018-06-05T10:52:05.089Z,23.53
2018-06-05T10:53:05.085Z,23.63
2018-06-05T10:54:05.172Z,23.76
2018-06-05T10:55:05.178Z,23.79
2018-06-05T10:56:05.173Z,23.5
2018-06-05T10:57:04.927Z,23.22
2018-06-05T10:58:19.629Z,22.7
2018-06-05T10:59:05.291Z,22.51
2018-06-05T11:00:05.269Z,22.61
2018-06-05T11:01:05.053Z,22.57
2018-06-05T11:02:05.334Z,22.68
2018-06-05T11:03:05.345Z,22.49
2018-06-05T11:04:05.402Z,22.39
2018-06-05T11:05:05.404Z,22.02
2018-06-05T11:06:05.229Z,22.15
2018-06-05T11:07:05.532Z,22.51
2018-06-05T11:08:05.494Z,22.55
2018-06-05T11:09:05.529Z,22.47
2018-06-05T11:10:05.269Z,22.45
2018-06-05T11:11:05.314Z,22.72
2018-06-05T11:13:20.269Z,22.54
2018-06-05T11:14:05.379Z,22.7
2018-06-05T11:15:05.689Z,22.97
2018-06-05T11:16:05.421Z,22.98
2018-06-05T11:17:05.748Z,23.48
2018-06-05T11:18:05.788Z,23.43
2018-06-05T11:19:05.805Z,23.66
2018-06-05T11:20:05.543Z,23.51
2018-06-05T11:21:20.480Z,24.15
2018-06-05T11:22:05.865Z,24.58
2018-06-05T11:23:05.888Z,24.88
2018-06-05T11:24:05.977Z,24.77
2018-06-05T11:25:05.962Z,24.77
2018-06-05T11:26:05.976Z,24.78
2018-06-05T11:27:05.724Z,24.6
2018-06-05T11:28:06.062Z,24.53
2018-06-05T11:29:06.028Z,24.45
2018-06-05T11:30:06.287Z,24.42
2018-06-05T11:31:05.827Z,24.52
2018-06-05T11:32:06.117Z,24.8
2018-06-05T11:34:06.226Z,25.28
2018-06-05T11:35:05.928Z,25.58
2018-06-05T11:36:06.253Z,26.06
2018-06-05T11:37:06.274Z,26.43
2018-06-05T11:38:05.756Z,26.55
2018-06-05T11:39:06.146Z,26.82
2018-06-05T11:40:06.070Z,26.72
2018-06-05T11:41:21.027Z,26.51
2018-06-05T11:42:06.377Z,26.47
2018-06-05T11:43:06.441Z,26.12
2018-06-05T11:44:06.460Z,26.18
2018-06-05T11:45:21.125Z,26.12
2018-06-05T11:46:06.521Z,25.98
2018-06-05T11:47:21.216Z,26.05
2018-06-05T11:48:06.555Z,26.29
2018-06-05T11:49:06.330Z,26.4
2018-06-05T11:50:06.627Z,26.17
2018-06-05T11:51:06.396Z,25.45
2018-06-05T11:52:06.660Z,25
2018-06-05T11:53:06.697Z,24.88
2018-06-05T11:54:07.064Z,24.46
2018-06-05T11:58:06.560Z,25.15
2018-06-05T11:59:06.610Z,25.3
2018-06-05T12:00:06.369Z,25.64
2018-06-05T12:02:21.341Z,25.58
2018-06-05T12:03:06.713Z,25.57
2018-06-05T12:04:06.725Z,25.75
2018-06-05T12:05:06.754Z,25.69
2018-06-05T12:06:07.070Z,25.6
2018-06-05T12:07:21.824Z,25.57
2018-06-05T12:08:06.861Z,25.65
2018-06-05T12:09:07.148Z,25.75
2018-06-05T12:10:06.909Z,26.02
2018-06-05T12:11:21.582Z,26.15
2018-06-05T12:12:06.944Z,25.95
2018-06-05T12:13:07.262Z,25.42
2018-06-05T12:14:06.998Z,25.18
2018-06-05T12:15:07.053Z,25.03
2018-06-05T12:16:07.338Z,24.98
2018-06-05T12:17:22.005Z,25.17
2018-06-05T12:19:07.139Z,25.95
2018-06-05T12:20:07.182Z,25.91
2018-06-05T12:21:07.449Z,26.33
2018-06-05T12:22:07.246Z,26.36
2018-06-05T12:23:07.273Z,26.18
2018-06-05T12:24:07.555Z,26.02
2018-06-05T12:25:07.301Z,26.33
2018-06-05T12:26:07.621Z,26.55
2018-06-05T12:27:22.276Z,26.89
2018-06-05T12:28:22.324Z,27.03
2018-06-05T12:29:07.424Z,27.14
2018-06-05T12:30:07.200Z,27.32
2018-06-05T12:31:07.542Z,27.31
2018-06-05T12:32:07.262Z,27.19
2018-06-05T12:33:22.464Z,27.24
2018-06-05T12:34:07.806Z,27.14
2018-06-05T12:35:07.869Z,27.19
2018-06-05T12:36:07.608Z,27.14
2018-06-05T12:37:07.939Z,27.14
2018-06-05T12:38:07.942Z,27.03
2018-06-05T12:39:08.078Z,27.04
2018-06-05T12:40:22.420Z,26.72
2018-06-05T12:41:08.066Z,26.65
2018-06-05T12:42:07.795Z,26.47
2018-06-05T12:43:07.810Z,26.37
2018-06-05T12:44:08.120Z,26.35
2018-06-05T12:45:07.861Z,26.3
2018-06-05T12:46:08.178Z,26.32
2018-06-05T12:47:07.928Z,26.32
2018-06-05T12:48:22.877Z,26.21
2018-06-05T12:49:08.228Z,25.97
2018-06-05T12:50:07.997Z,25.76
2018-06-05T12:51:08.329Z,25.32
2018-06-05T12:52:08.338Z,25.15
2018-06-05T12:53:08.337Z,25.3
2018-06-05T12:54:08.398Z,25.54
2018-06-05T12:55:08.138Z,25.57
2018-06-05T12:56:08.192Z,25.69
2018-06-05T12:57:08.473Z,25.8
2018-06-05T12:58:08.386Z,26.01
2018-06-05T12:59:08.243Z,26.18
2018-06-05T13:01:08.589Z,26.32
2018-06-05T13:02:08.586Z,26.01
2018-06-05T13:04:08.709Z,26.33
2018-06-05T13:05:08.748Z,26.6
2018-06-05T13:06:08.437Z,26.75
2018-06-05T13:07:08.730Z,26.69
2018-06-05T13:08:08.245Z,26.33
2018-06-05T13:09:08.806Z,26.07
2018-06-05T13:10:08.846Z,25.73
2018-06-05T13:11:08.835Z,25.75
2018-06-05T13:12:09.009Z,25.57
2018-06-05T13:13:08.896Z,25.67
2018-06-05T13:14:08.693Z,25.82
2018-06-05T13:15:08.691Z,26.32
2018-06-05T13:16:09.014Z,26.44
2018-06-05T13:17:09.018Z,26.94
2018-06-05T13:18:09.062Z,26.58
2018-06-05T13:19:08.541Z,26.55
2018-06-05T13:20:23.502Z,26.55
2018-06-05T13:21:08.870Z,26.88
2018-06-05T13:22:08.900Z,27.28
2018-06-05T13:23:09.022Z,27.66
2018-06-05T13:24:08.969Z,27.57
2018-06-05T13:25:08.974Z,27.44
2018-06-05T13:26:09.283Z,27.51
2018-06-05T13:27:08.808Z,27.29
2018-06-05T13:28:09.337Z,27.41
2018-06-05T13:29:09.331Z,27.55
2018-06-05T13:30:09.372Z,27.19
2018-06-05T13:31:09.166Z,26.94
2018-06-05T13:32:24.132Z,26.89
2018-06-05T13:33:09.481Z,26.54
2018-06-05T13:34:09.237Z,26.02
2018-06-05T13:35:09.538Z,25.73
2018-06-05T13:36:24.195Z,25.45
2018-06-05T13:37:09.573Z,25.36
2018-06-05T13:38:09.607Z,25.23
2018-06-05T13:39:09.657Z,24.95
2018-06-05T13:40:09.681Z,25.14
2018-06-05T13:41:09.677Z,25.2
2018-06-05T13:42:09.467Z,25.18
2018-06-05T13:43:09.477Z,25.3
2018-06-05T13:45:09.524Z,25.38
2018-06-05T13:48:09.896Z,25.7
2018-06-05T13:49:09.894Z,25.6
2018-06-05T13:50:09.956Z,25.47
2018-06-05T13:51:10.017Z,25.57
2018-06-05T13:52:24.726Z,25.5
2018-06-05T13:55:10.089Z,25.05
2018-06-05T13:56:10.085Z,25.33
2018-06-05T13:57:10.147Z,25.42
2018-06-05T13:59:09.914Z,25.8